Private Wetterstation Sandau
Wetterdaten: Sonntag, 03.06.2012
Datum Zeit Temp. A. Feuchte A. Luftdruck Regen Wind Richtung Richtung Taupunkt Windchill
03.06.2012 00:01 10,6 C 63 % 1013,6 hPa 0,0 l/m 3,2 km/h (1 Bft) W-NW 292 3,9 C 10,6 C
03.06.2012 00:06 10,6 C 64 % 1013,5 hPa 0,0 l/m 0,0 km/h (0 Bft) W 270 4,1 C 10,6 C
03.06.2012 00:11 10,6 C 64 % 1013,6 hPa 0,0 l/m 2,9 km/h (1 Bft) W-NW 292 4,1 C 10,6 C
03.06.2012 00:16 10,5 C 64 % 1013,6 hPa 0,0 l/m 5,0 km/h (1 Bft) W 270 4,0 C 10,5 C
03.06.2012 00:21 10,4 C 65 % 1013,5 hPa 0,0 l/m 5,8 km/h (2 Bft) W-NW 292 4,1 C 10,4 C
03.06.2012 00:26 10,4 C 65 % 1013,5 hPa 0,0 l/m 4,3 km/h (1 Bft) W-NW 292 4,1 C 10,4 C
03.06.2012 00:31 10,3 C 65 % 1013,5 hPa 0,0 l/m 8,3 km/h (2 Bft) NW 315 4,0 C 10,3 C
03.06.2012 00:36 10,3 C 65 % 1013,5 hPa 0,0 l/m 7,6 km/h (2 Bft) W-NW 292 4,0 C 10,3 C
03.06.2012 00:41 10,3 C 65 % 1013,5 hPa 0,0 l/m 2,5 km/h (1 Bft) W 270 4,0 C 10,3 C
03.06.2012 00:46 10,2 C 65 % 1013,3 hPa 0,0 l/m 6,5 km/h (2 Bft) W-NW 292 3,9 C 10,2 C
03.06.2012 00:51 10,2 C 66 % 1013,4 hPa 0,0 l/m 7,6 km/h (2 Bft) W-NW 292 4,1 C 10,2 C
03.06.2012 00:56 10,1 C 66 % 1013,3 hPa 0,0 l/m 5,0 km/h (1 Bft) W-NW 292 4,0 C 10,1 C
03.06.2012 01:01 10,1 C 66 % 1013,1 hPa 0,0 l/m 3,2 km/h (1 Bft) W-NW 292 4,0 C 10,1 C
03.06.2012 01:06 10,1 C 67 % 1013,2 hPa 0,0 l/m 3,6 km/h (1 Bft) W 270 4,3 C 10,1 C
03.06.2012 01:11 10,0 C 67 % 1013,2 hPa 0,0 l/m 6,5 km/h (2 Bft) W-NW 292 4,2 C 9,3 C
03.06.2012 01:16 9,9 C 67 % 1013,1 hPa 0,0 l/m 3,2 km/h (1 Bft) NW 315 4,1 C 9,9 C
03.06.2012 01:21 9,9 C 68 % 1013,0 hPa 0,0 l/m 2,9 km/h (1 Bft) W 270 4,3 C 9,9 C
03.06.2012 01:26 9,9 C 68 % 1013,0 hPa 0,0 l/m 4,3 km/h (1 Bft) W-NW 292 4,3 C 9,9 C
03.06.2012 01:31 9,8 C 68 % 1012,9 hPa 0,0 l/m 1,8 km/h (1 Bft) NW 315 4,2 C 9,8 C
03.06.2012 01:36 9,8 C 68 % 1012,9 hPa 0,0 l/m 0,0 km/h (0 Bft) W-NW 292 4,2 C 9,8 C
03.06.2012 01:41 9,8 C 68 % 1012,9 hPa 0,0 l/m 2,2 km/h (1 Bft) W-SW 247 4,2 C 9,8 C
03.06.2012 01:46 9,7 C 68 % 1012,9 hPa 0,0 l/m 4,0 km/h (1 Bft) W-SW 247 4,1 C 9,7 C
03.06.2012 01:51 9,6 C 68 % 1012,8 hPa 0,0 l/m 4,0 km/h (1 Bft) NW 315 4,0 C 9,6 C
03.06.2012 01:56 9,6 C 68 % 1012,9 hPa 0,0 l/m 0,0 km/h (0 Bft) NW 315 4,0 C 9,6 C
03.06.2012 02:01 9,5 C 68 % 1012,9 hPa 0,0 l/m 4,0 km/h (1 Bft) W-NW 292 3,9 C 9,5 C
03.06.2012 02:06 9,4 C 68 % 1012,8 hPa 0,0 l/m 2,2 km/h (1 Bft) NW 315 3,8 C 9,4 C
03.06.2012 02:11 9,3 C 68 % 1012,9 hPa 0,0 l/m 3,2 km/h (1 Bft) W 270 3,7 C 9,3 C
03.06.2012 02:16 9,3 C 68 % 1012,9 hPa 0,0 l/m 4,0 km/h (1 Bft) W 270 3,7 C 9,3 C
03.06.2012 02:21 9,3 C 69 % 1012,8 hPa 0,0 l/m 4,3 km/h (1 Bft) W 270 3,9 C 9,3 C
03.06.2012 02:26 9,2 C 69 % 1012,9 hPa 0,0 l/m 2,5 km/h (1 Bft) W-NW 292 3,8 C 9,2 C
03.06.2012 02:31 9,3 C 69 % 1012,9 hPa 0,0 l/m 3,6 km/h (1 Bft) W 270 3,9 C 9,3 C
03.06.2012 02:36 9,2 C 69 % 1012,9 hPa 0,0 l/m 4,7 km/h (1 Bft) W-NW 292 3,8 C 8,9 C
03.06.2012 02:41 9,1 C 69 % 1012,9 hPa 0,0 l/m 2,9 km/h (1 Bft) W 270 3,7 C 9,1 C
03.06.2012 02:46 9,1 C 69 % 1012,8 hPa 0,0 l/m 3,6 km/h (1 Bft) W-NW 292 3,7 C 9,1 C
03.06.2012 02:51 9,1 C 69 % 1012,8 hPa 0,0 l/m 3,6 km/h (1 Bft) W 270 3,7 C 9,1 C
03.06.2012 02:56 9,1 C 69 % 1012,9 hPa 0,0 l/m 2,5 km/h (1 Bft) W 270 3,7 C 9,1 C
03.06.2012 03:01 9,1 C 69 % 1012,7 hPa 0,0 l/m 2,2 km/h (1 Bft) NW 315 3,7 C 9,1 C
03.06.2012 03:06 9,0 C 69 % 1012,7 hPa 0,0 l/m 4,0 km/h (1 Bft) W-NW 292 3,6 C 9,0 C
03.06.2012 03:11 9,0 C 69 % 1012,5 hPa 0,0 l/m 4,0 km/h (1 Bft) W 270 3,6 C 9,0 C
03.06.2012 03:16 9,1 C 70 % 1012,6 hPa 0,0 l/m 0,0 km/h (0 Bft) W-SW 247 3,9 C 9,1 C
03.06.2012 03:21 9,1 C 70 % 1012,6 hPa 0,0 l/m 2,9 km/h (1 Bft) W-SW 247 3,9 C 9,1 C
03.06.2012 03:26 9,1 C 70 % 1012,5 hPa 0,0 l/m 2,5 km/h (1 Bft) W 270 3,9 C 9,1 C
03.06.2012 03:31 9,1 C 70 % 1012,5 hPa 0,0 l/m 4,3 km/h (1 Bft) NW 315 3,9 C 9,1 C
03.06.2012 03:36 9,0 C 70 % 1012,5 hPa 0,0 l/m 4,7 km/h (1 Bft) W-SW 247 3,8 C 8,7 C
03.06.2012 03:41 9,0 C 70 % 1012,4 hPa 0,0 l/m 0,0 km/h (0 Bft) W 270 3,8 C 9,0 C
03.06.2012 03:46 9,1 C 70 % 1012,3 hPa 0,0 l/m 0,0 km/h (0 Bft) W 270 3,9 C 9,1 C
03.06.2012 03:51 9,1 C 70 % 1012,3 hPa 0,0 l/m 4,0 km/h (1 Bft) W-SW 247 3,9 C 9,1 C
03.06.2012 03:56 9,1 C 70 % 1012,3 hPa 0,0 l/m 0,0 km/h (0 Bft) W-SW 247 3,9 C 9,1 C
03.06.2012 04:01 9,1 C 70 % 1012,3 hPa 0,0 l/m 5,0 km/h (1 Bft) W-SW 247 3,9 C 8,7 C
03.06.2012 04:06 9,1 C 70 % 1012,2 hPa 0,0 l/m 3,6 km/h (1 Bft) W-SW 247 3,9 C 9,1 C
03.06.2012 04:11 9,2 C 70 % 1012,3 hPa 0,0 l/m 3,2 km/h (1 Bft) W-SW 247 4,0 C 9,2 C
03.06.2012 04:16 9,2 C 70 % 1012,2 hPa 0,0 l/m 0,0 km/h (0 Bft) W 270 4,0 C 9,2 C
03.06.2012 04:21 9,2 C 70 % 1012,2 hPa 0,0 l/m 2,5 km/h (1 Bft) W 270 4,0 C 9,2 C
03.06.2012 04:26 9,2 C 70 % 1012,2 hPa 0,0 l/m 1,1 km/h (1 Bft) W 270 4,0 C 9,2 C
03.06.2012 04:31 9,0 C 70 % 1012,2 hPa 0,0 l/m 4,7 km/h (1 Bft) W-NW 292 3,8 C 8,7 C
03.06.2012 04:36 8,9 C 70 % 1012,2 hPa 0,0 l/m 2,2 km/h (1 Bft) W 270 3,7 C 8,9 C
03.06.2012 04:41 8,8 C 70 % 1012,0 hPa 0,0 l/m 0,0 km/h (0 Bft) W 270 3,6 C 8,8 C
03.06.2012 04:46 8,8 C 70 % 1012,0 hPa 0,0 l/m 2,2 km/h (1 Bft) W-NW 292 3,6 C 8,8 C
03.06.2012 04:51 8,7 C 70 % 1012,2 hPa 0,0 l/m 2,2 km/h (1 Bft) W 270 3,5 C 8,7 C
03.06.2012 04:56 8,6 C 70 % 1012,0 hPa 0,0 l/m 0,0 km/h (0 Bft) W 270 3,4 C 8,6 C
03.06.2012 05:01 8,4 C 71 % 1012,1 hPa 0,0 l/m 2,2 km/h (1 Bft) W-NW 292 3,5 C 8,4 C
03.06.2012 05:06 8,4 C 71 % 1012,4 hPa 0,0 l/m 0,0 km/h (0 Bft) W 270 3,5 C 8,4 C
03.06.2012 05:11 8,3 C 72 % 1012,2 hPa 0,0 l/m 0,0 km/h (0 Bft) W 270 3,6 C 8,3 C
03.06.2012 05:16 8,3 C 72 % 1012,3 hPa 0,0 l/m 2,2 km/h (1 Bft) W 270 3,6 C 8,3 C
03.06.2012 05:21 8,3 C 72 % 1012,3 hPa 0,0 l/m 1,4 km/h (1 Bft) W-SW 247 3,6 C 8,3 C
03.06.2012 05:26 8,3 C 72 % 1012,2 hPa 0,0 l/m 2,5 km/h (1 Bft) W-NW 292 3,6 C 8,3 C
03.06.2012 05:31 8,3 C 72 % 1012,1 hPa 0,0 l/m 2,5 km/h (1 Bft) W 270 3,6 C 8,3 C
03.06.2012 05:36 8,3 C 72 % 1012,2 hPa 0,0 l/m 2,2 km/h (1 Bft) W 270 3,6 C 8,3 C
03.06.2012 05:41 8,4 C 72 % 1012,2 hPa 0,0 l/m 3,2 km/h (1 Bft) W-SW 247 3,7 C 8,4 C
03.06.2012 05:46 8,5 C 72 % 1012,3 hPa 0,0 l/m 4,7 km/h (1 Bft) W 270 3,7 C 8,2 C
03.06.2012 05:51 8,8 C 73 % 1012,3 hPa 0,0 l/m 3,6 km/h (1 Bft) W-NW 292 4,2 C 8,8 C
03.06.2012 05:56 9,3 C 74 % 1012,2 hPa 0,0 l/m 2,5 km/h (1 Bft) W-NW 292 4,9 C 9,3 C
03.06.2012 06:01 9,8 C 73 % 1012,2 hPa 0,0 l/m 0,0 km/h (0 Bft) W 270 5,2 C 9,8 C
03.06.2012 06:06 10,4 C 72 % 1012,4 hPa 0,0 l/m 0,0 km/h (0 Bft) W 270 5,6 C 10,4 C
03.06.2012 06:11 10,7 C 69 % 1012,2 hPa 0,0 l/m 1,8 km/h (1 Bft) W-NW 292 5,2 C 10,7 C
03.06.2012 06:16 10,6 C 68 % 1012,3 hPa 0,0 l/m 4,0 km/h (1 Bft) NW 315 4,9 C 10,6 C
03.06.2012 06:21 10,5 C 67 % 1012,3 hPa 0,0 l/m 0,0 km/h (0 Bft) W-NW 292 4,6 C 10,5 C
03.06.2012 06:26 10,4 C 67 % 1012,2 hPa 0,0 l/m 2,2 km/h (1 Bft) W 270 4,5 C 10,4 C
03.06.2012 06:31 10,1 C 67 % 1012,2 hPa 0,0 l/m 0,0 km/h (0 Bft) W 270 4,3 C 10,1 C
03.06.2012 06:36 9,9 C 68 % 1012,4 hPa 0,0 l/m 2,2 km/h (1 Bft) W-SW 247 4,3 C 9,9 C
03.06.2012 06:41 9,8 C 68 % 1012,4 hPa 0,0 l/m 2,5 km/h (1 Bft) W-NW 292 4,2 C 9,8 C
03.06.2012 06:46 9,6 C 68 % 1012,4 hPa 0,0 l/m 0,0 km/h (0 Bft) W 270 4,0 C 9,6 C
03.06.2012 06:51 9,5 C 69 % 1012,5 hPa 0,0 l/m 4,3 km/h (1 Bft) W-NW 292 4,1 C 9,5 C
03.06.2012 06:56 9,5 C 70 % 1012,4 hPa 0,0 l/m 4,0 km/h (1 Bft) W 270 4,3 C 9,5 C
03.06.2012 07:01 9,6 C 70 % 1012,5 hPa 0,0 l/m 4,3 km/h (1 Bft) SW 225 4,4 C 9,6 C
03.06.2012 07:06 9,8 C 70 % 1012,6 hPa 0,0 l/m 7,2 km/h (2 Bft) W-SW 247 4,6 C 8,9 C
03.06.2012 07:11 9,8 C 70 % 1012,6 hPa 0,0 l/m 5,8 km/h (2 Bft) W-SW 247 4,6 C 9,3 C
03.06.2012 07:16 9,9 C 70 % 1012,7 hPa 0,0 l/m 5,8 km/h (2 Bft) W-SW 247 4,7 C 9,4 C
03.06.2012 07:21 9,9 C 70 % 1012,8 hPa 0,0 l/m 4,7 km/h (1 Bft) W 270 4,7 C 9,7 C
03.06.2012 07:26 9,9 C 70 % 1012,6 hPa 0,0 l/m 5,4 km/h (1 Bft) NW 315 4,7 C 9,5 C
03.06.2012 07:31 9,9 C 70 % 1012,7 hPa 0,0 l/m 7,6 km/h (2 Bft) W-NW 292 4,7 C 9,0 C
03.06.2012 07:36 9,8 C 70 % 1012,6 hPa 0,0 l/m 4,3 km/h (1 Bft) W-NW 292 4,6 C 9,8 C
03.06.2012 07:41 9,8 C 70 % 1012,5 hPa 0,0 l/m 1,4 km/h (1 Bft) W 270 4,6 C 9,8 C
03.06.2012 07:46 9,9 C 70 % 1012,4 hPa 0,0 l/m 4,0 km/h (1 Bft) W-SW 247 4,7 C 9,9 C
03.06.2012 07:51 10,2 C 70 % 1012,3 hPa 0,0 l/m 2,9 km/h (1 Bft) W 270 5,0 C 10,2 C
03.06.2012 07:56 10,3 C 70 % 1012,4 hPa 0,0 l/m 5,4 km/h (1 Bft) W-NW 292 5,1 C 10,3 C
03.06.2012 08:01 10,4 C 69 % 1012,4 hPa 0,0 l/m 4,0 km/h (1 Bft) W 270 5,0 C 10,4 C
03.06.2012 08:06 10,4 C 69 % 1012,3 hPa 0,0 l/m 5,4 km/h (1 Bft) W-NW 292 5,0 C 10,4 C
03.06.2012 08:11 10,6 C 69 % 1012,4 hPa 0,0 l/m 4,0 km/h (1 Bft) W-NW 292 5,2 C 10,6 C
03.06.2012 08:16 10,6 C 69 % 1012,3 hPa 0,0 l/m 3,6 km/h (1 Bft) W-SW 247 5,2 C 10,6 C
03.06.2012 08:21 10,8 C 69 % 1012,3 hPa 0,0 l/m 4,7 km/h (1 Bft) W-SW 247 5,3 C 10,8 C
03.06.2012 08:26 10,9 C 68 % 1012,3 hPa 0,0 l/m 5,8 km/h (2 Bft) W-NW 292 5,2 C 10,9 C
03.06.2012 08:31 11,2 C 68 % 1012,2 hPa 0,0 l/m 2,5 km/h (1 Bft) W-SW 247 5,5 C 11,2 C
03.06.2012 08:36 11,4 C 67 % 1012,2 hPa 0,0 l/m 5,0 km/h (1 Bft) W-NW 292 5,5 C 11,4 C
03.06.2012 08:41 11,6 C 67 % 1012,2 hPa 0,0 l/m 3,6 km/h (1 Bft) NW 315 5,7 C 11,6 C
03.06.2012 08:46 11,8 C 66 % 1012,1 hPa 0,0 l/m 10,4 km/h (2 Bft) SW 225 5,7 C 11,8 C
03.06.2012 08:51 11,9 C 66 % 1012,1 hPa 0,0 l/m 6,5 km/h (2 Bft) W-NW 292 5,8 C 11,9 C
03.06.2012 08:56 12,2 C 65 % 1011,9 hPa 0,0 l/m 4,0 km/h (1 Bft) W 270 5,8 C 12,2 C
03.06.2012 09:01 12,4 C 63 % 1011,8 hPa 0,0 l/m 4,0 km/h (1 Bft) W-NW 292 5,6 C 12,4 C
03.06.2012 09:06 12,4 C 63 % 1011,7 hPa 0,0 l/m 3,6 km/h (1 Bft) NO 45 5,6 C 12,4 C
03.06.2012 09:11 12,4 C 62 % 1011,8 hPa 0,0 l/m 10,4 km/h (2 Bft) W-NW 292 5,3 C 12,4 C
03.06.2012 09:16 12,4 C 61 % 1011,7 hPa 0,0 l/m 2,2 km/h (1 Bft) NW 315 5,1 C 12,4 C
03.06.2012 09:21 12,4 C 61 % 1011,6 hPa 0,0 l/m 3,2 km/h (1 Bft) W-NW 292 5,1 C 12,4 C
03.06.2012 09:26 12,6 C 61 % 1011,4 hPa 0,0 l/m 1,8 km/h (1 Bft) NW 315 5,3 C 12,6 C
03.06.2012 09:31 12,7 C 61 % 1011,3 hPa 0,0 l/m 3,6 km/h (1 Bft) NW 315 5,4 C 12,7 C
03.06.2012 09:36 12,9 C 60 % 1011,1 hPa 0,0 l/m 2,5 km/h (1 Bft) W 270 5,3 C 12,9 C
03.06.2012 09:41 12,9 C 60 % 1011,3 hPa 0,0 l/m 6,5 km/h (2 Bft) NW 315 5,3 C 12,9 C
03.06.2012 09:46 12,9 C 58 % 1011,2 hPa 0,0 l/m 2,9 km/h (1 Bft) N 360 4,8 C 12,9 C
03.06.2012 09:51 12,8 C 58 % 1011,0 hPa 0,0 l/m 5,0 km/h (1 Bft) W-NW 292 4,7 C 12,8 C
03.06.2012 09:56 12,8 C 58 % 1010,9 hPa 0,0 l/m 0,0 km/h (0 Bft) N 360 4,7 C 12,8 C
03.06.2012 10:01 12,9 C 58 % 1010,8 hPa 0,0 l/m 1,8 km/h (1 Bft) W-NW 292 4,8 C 12,9 C
03.06.2012 10:06 13,0 C 58 % 1010,8 hPa 0,0 l/m 6,1 km/h (2 Bft) SW 225 4,9 C 13,0 C
03.06.2012 10:11 13,1 C 58 % 1011,0 hPa 0,0 l/m 9,4 km/h (2 Bft) W-SW 247 5,0 C 13,1 C
03.06.2012 10:16 13,3 C 57 % 1011,0 hPa 0,0 l/m 8,6 km/h (2 Bft) W 270 5,0 C 13,3 C
03.06.2012 10:21 13,6 C 57 % 1011,0 hPa 0,0 l/m 6,8 km/h (2 Bft) S-SW 202 5,2 C 13,6 C
03.06.2012 10:26 13,6 C 56 % 1010,9 hPa 0,0 l/m 5,4 km/h (1 Bft) W 270 5,0 C 13,6 C
03.06.2012 10:31 13,7 C 56 % 1011,0 hPa 0,0 l/m 11,2 km/h (2 Bft) W-SW 247 5,1 C 13,7 C
03.06.2012 10:36 13,8 C 56 % 1010,8 hPa 0,0 l/m 1,4 km/h (1 Bft) S-SW 202 5,2 C 13,8 C
03.06.2012 10:41 13,8 C 55 % 1010,6 hPa 0,0 l/m 1,8 km/h (1 Bft) NO 45 4,9 C 13,8 C
03.06.2012 10:46 13,5 C 54 % 1010,6 hPa 0,0 l/m 1,8 km/h (1 Bft) N-NO 22 4,4 C 13,5 C
03.06.2012 10:51 13,3 C 55 % 1010,7 hPa 0,0 l/m 2,5 km/h (1 Bft) W 270 4,5 C 13,3 C
03.06.2012 10:56 13,3 C 55 % 1010,4 hPa 0,0 l/m 3,6 km/h (1 Bft) W-SW 247 4,5 C 13,3 C
03.06.2012 11:01 13,6 C 55 % 1010,4 hPa 0,0 l/m 4,0 km/h (1 Bft) NW 315 4,7 C 13,6 C
03.06.2012 11:06 13,9 C 54 % 1010,4 hPa 0,0 l/m 2,5 km/h (1 Bft) NW 315 4,7 C 13,9 C
03.06.2012 11:11 13,8 C 53 % 1010,3 hPa 0,0 l/m 0,0 km/h (0 Bft) N-NO 22 4,4 C 13,8 C
03.06.2012 11:16 13,8 C 54 % 1010,3 hPa 0,0 l/m 0,0 km/h (0 Bft) W-SW 247 4,7 C 13,8 C
03.06.2012 11:21 13,9 C 54 % 1010,2 hPa 0,0 l/m 3,2 km/h (1 Bft) W-NW 292 4,7 C 13,9 C
03.06.2012 11:26 14,1 C 53 % 1010,0 hPa 0,0 l/m 6,1 km/h (2 Bft) W-NW 292 4,7 C 14,1 C
03.06.2012 11:31 14,2 C 52 % 1010,1 hPa 0,0 l/m 5,4 km/h (1 Bft) W-SW 247 4,5 C 14,2 C
03.06.2012 11:36 14,3 C 52 % 1010,1 hPa 0,0 l/m 6,5 km/h (2 Bft) S-SW 202 4,6 C 14,3 C
03.06.2012 11:41 14,3 C 52 % 1009,9 hPa 0,0 l/m 3,6 km/h (1 Bft) S-SW 202 4,6 C 14,3 C
03.06.2012 11:46 14,3 C 52 % 1009,9 hPa 0,0 l/m 2,5 km/h (1 Bft) S-SO 157 4,6 C 14,3 C
03.06.2012 11:51 14,4 C 52 % 1009,8 hPa 0,0 l/m 0,0 km/h (0 Bft) W-SW 247 4,7 C 14,4 C
03.06.2012 11:56 14,4 C 51 % 1009,8 hPa 0,0 l/m 0,0 km/h (0 Bft) S-SW 202 4,4 C 14,4 C
03.06.2012 12:01 14,6 C 51 % 1009,9 hPa 0,0 l/m 4,0 km/h (1 Bft) W 270 4,6 C 14,6 C
03.06.2012 12:06 14,6 C 51 % 1009,8 hPa 0,0 l/m 5,8 km/h (2 Bft) S-SW 202 4,6 C 14,6 C
03.06.2012 12:11 14,7 C 51 % 1009,8 hPa 0,0 l/m 0,0 km/h (0 Bft) W-SW 247 4,7 C 14,7 C
03.06.2012 12:16 14,9 C 51 % 1009,9 hPa 0,0 l/m 0,0 km/h (0 Bft) W-SW 247 4,9 C 14,9 C
03.06.2012 12:21 14,9 C 50 % 1009,8 hPa 0,0 l/m 1,8 km/h (1 Bft) S-SO 157 4,6 C 14,9 C
03.06.2012 12:26 14,9 C 50 % 1009,8 hPa 0,0 l/m 7,2 km/h (2 Bft) W-NW 292 4,6 C 14,9 C
03.06.2012 12:31 15,1 C 49 % 1009,8 hPa 0,0 l/m 2,5 km/h (1 Bft) S-SW 202 4,5 C 15,1 C
03.06.2012 12:36 15,3 C 49 % 1009,8 hPa 0,0 l/m 7,2 km/h (2 Bft) SW 225 4,7 C 15,3 C
03.06.2012 12:41 15,4 C 49 % 1009,9 hPa 0,0 l/m 5,4 km/h (1 Bft) S-SW 202 4,7 C 15,4 C
03.06.2012 12:46 15,4 C 49 % 1009,8 hPa 0,0 l/m 5,8 km/h (2 Bft) W-SW 247 4,7 C 15,4 C
03.06.2012 12:51 15,4 C 49 % 1009,7 hPa 0,0 l/m 7,6 km/h (2 Bft) SW 225 4,7 C 15,4 C
03.06.2012 12:56 15,4 C 49 % 1009,6 hPa 0,0 l/m 3,2 km/h (1 Bft) W-NW 292 4,7 C 15,4 C
03.06.2012 13:01 15,2 C 48 % 1009,5 hPa 0,0 l/m 4,0 km/h (1 Bft) SW 225 4,3 C 15,2 C
03.06.2012 13:06 15,0 C 49 % 1009,4 hPa 0,0 l/m 6,8 km/h (2 Bft) W-NW 292 4,4 C 15,0 C
03.06.2012 13:11 14,9 C 49 % 1009,4 hPa 0,0 l/m 9,4 km/h (2 Bft) W-SW 247 4,3 C 14,9 C
03.06.2012 13:16 14,9 C 50 % 1009,3 hPa 0,0 l/m 4,0 km/h (1 Bft) W-SW 247 4,6 C 14,9 C
03.06.2012 13:21 14,9 C 50 % 1009,3 hPa 0,0 l/m 7,6 km/h (2 Bft) W-SW 247 4,6 C 14,9 C
03.06.2012 13:26 14,9 C 50 % 1009,3 hPa 0,0 l/m 9,7 km/h (2 Bft) SW 225 4,6 C 14,9 C
03.06.2012 13:31 14,9 C 49 % 1009,2 hPa 0,0 l/m 6,1 km/h (2 Bft) W-NW 292 4,3 C 14,9 C
03.06.2012 13:36 14,9 C 49 % 1009,2 hPa 0,0 l/m 8,3 km/h (2 Bft) SW 225 4,3 C 14,9 C
03.06.2012 13:41 14,9 C 50 % 1009,2 hPa 0,0 l/m 2,9 km/h (1 Bft) S-SW 202 4,6 C 14,9 C
03.06.2012 13:46 14,8 C 50 % 1009,2 hPa 0,0 l/m 4,0 km/h (1 Bft) W 270 4,5 C 14,8 C
03.06.2012 13:51 14,8 C 50 % 1009,1 hPa 0,0 l/m 6,5 km/h (2 Bft) W-NW 292 4,5 C 14,8 C
03.06.2012 13:56 14,5 C 51 % 1009,2 hPa 0,0 l/m 5,0 km/h (1 Bft) SW 225 4,5 C 14,5 C
03.06.2012 14:01 14,4 C 51 % 1009,1 hPa 0,0 l/m 4,0 km/h (1 Bft) SW 225 4,4 C 14,4 C
03.06.2012 14:06 14,5 C 53 % 1009,1 hPa 0,0 l/m 5,4 km/h (1 Bft) S-SW 202 5,0 C 14,5 C
03.06.2012 14:11 14,4 C 54 % 1009,1 hPa 0,0 l/m 4,7 km/h (1 Bft) W-SW 247 5,2 C 14,4 C
03.06.2012 14:16 14,4 C 55 % 1009,1 hPa 0,0 l/m 4,7 km/h (1 Bft) W-SW 247 5,5 C 14,4 C
03.06.2012 14:21 14,4 C 57 % 1009,1 hPa 0,0 l/m 6,5 km/h (2 Bft) S-SO 157 6,0 C 14,4 C
03.06.2012 14:26 14,4 C 56 % 1009,0 hPa 0,0 l/m 3,2 km/h (1 Bft) S-SW 202 5,7 C 14,4 C
03.06.2012 14:31 14,3 C 57 % 1009,0 hPa 0,0 l/m 5,4 km/h (1 Bft) W-SW 247 5,9 C 14,3 C
03.06.2012 14:36 14,2 C 58 % 1008,8 hPa 0,0 l/m 8,6 km/h (2 Bft) S-SW 202 6,1 C 14,2 C
03.06.2012 14:41 14,1 C 60 % 1008,8 hPa 0,0 l/m 5,0 km/h (1 Bft) SW 225 6,5 C 14,1 C
03.06.2012 14:46 13,9 C 61 % 1008,7 hPa 0,0 l/m 3,2 km/h (1 Bft) W-SW 247 6,5 C 13,9 C
03.06.2012 14:51 13,8 C 61 % 1008,8 hPa 0,0 l/m 6,8 km/h (2 Bft) S-SW 202 6,4 C 13,8 C
03.06.2012 14:56 13,6 C 62 % 1008,7 hPa 0,0 l/m 4,3 km/h (1 Bft) S-SW 202 6,5 C 13,6 C
03.06.2012 15:01 13,4 C 64 % 1008,8 hPa 0,0 l/m 0,0 km/h (0 Bft) S-SW 202 6,7 C 13,4 C
03.06.2012 15:06 13,3 C 65 % 1008,7 hPa 0,5 l/m 4,7 km/h (1 Bft) S-SW 202 6,9 C 13,3 C
03.06.2012 15:11 13,2 C 66 % 1008,7 hPa 0,0 l/m 3,6 km/h (1 Bft) S-SW 202 7,0 C 13,2 C
03.06.2012 15:16 13,1 C 66 % 1008,5 hPa 0,0 l/m 2,9 km/h (1 Bft) S-SW 202 6,9 C 13,1 C
03.06.2012 15:21 13,0 C 67 % 1008,7 hPa 0,0 l/m 5,0 km/h (1 Bft) SW 225 7,0 C 13,0 C
03.06.2012 15:26 12,9 C 68 % 1008,5 hPa 0,0 l/m 6,5 km/h (2 Bft) W-SW 247 7,1 C 12,9 C
03.06.2012 15:31 12,9 C 69 % 1008,7 hPa 0,5 l/m 7,2 km/h (2 Bft) S 180 7,4 C 12,9 C
03.06.2012 15:36 12,9 C 69 % 1008,6 hPa 0,0 l/m 4,0 km/h (1 Bft) SW 225 7,4 C 12,9 C
03.06.2012 15:41 12,8 C 70 % 1008,3 hPa 0,0 l/m 6,5 km/h (2 Bft) W 270 7,5 C 12,8 C
03.06.2012 15:46 12,7 C 70 % 1008,6 hPa 0,0 l/m 2,5 km/h (1 Bft) W-NW 292 7,4 C 12,7 C
03.06.2012 15:51 12,6 C 71 % 1008,3 hPa 0,5 l/m 4,0 km/h (1 Bft) S-SW 202 7,5 C 12,6 C
03.06.2012 15:56 12,6 C 71 % 1008,2 hPa 0,0 l/m 2,2 km/h (1 Bft) SW 225 7,5 C 12,6 C
03.06.2012 16:01 12,5 C 71 % 1008,3 hPa 0,5 l/m 1,1 km/h (1 Bft) W-SW 247 7,4 C 12,5 C
03.06.2012 16:06 12,5 C 72 % 1008,2 hPa 0,0 l/m 0,0 km/h (0 Bft) W-SW 247 7,6 C 12,5 C
03.06.2012 16:11 12,5 C 71 % 1008,2 hPa 0,0 l/m 4,7 km/h (1 Bft) W-SW 247 7,4 C 12,5 C
03.06.2012 16:16 12,4 C 72 % 1008,2 hPa 0,5 l/m 1,4 km/h (1 Bft) W-SW 247 7,5 C 12,4 C
03.06.2012 16:21 12,4 C 72 % 1008,1 hPa 0,0 l/m 0,0 km/h (0 Bft) SW 225 7,5 C 12,4 C
03.06.2012 16:26 12,4 C 73 % 1008,1 hPa 0,0 l/m 4,0 km/h (1 Bft) S-SO 157 7,7 C 12,4 C
03.06.2012 16:31 12,4 C 73 % 1008,0 hPa 0,5 l/m 2,2 km/h (1 Bft) S-SW 202 7,7 C 12,4 C
03.06.2012 16:36 12,4 C 74 % 1008,1 hPa 0,0 l/m 1,1 km/h (1 Bft) S 180 7,9 C 12,4 C
03.06.2012 16:41 12,4 C 74 % 1008,0 hPa 0,0 l/m 0,0 km/h (0 Bft) S-SW 202 7,9 C 12,4 C
03.06.2012 16:46 12,4 C 74 % 1007,9 hPa 0,0 l/m 0,0 km/h (0 Bft) S-SO 157 7,9 C 12,4 C
03.06.2012 16:51 12,4 C 74 % 1007,7 hPa 0,0 l/m 0,0 km/h (0 Bft) SW 225 7,9 C 12,4 C
03.06.2012 16:56 12,3 C 74 % 1007,5 hPa 0,0 l/m 0,0 km/h (0 Bft) W-SW 247 7,8 C 12,3 C
03.06.2012 17:01 12,1 C 74 % 1007,8 hPa 0,0 l/m 0,0 km/h (0 Bft) W-SW 247 7,6 C 12,1 C
03.06.2012 17:06 12,1 C 74 % 1007,6 hPa 0,0 l/m 0,0 km/h (0 Bft) S-SO 157 7,6 C 12,1 C
03.06.2012 17:11 12,0 C 74 % 1007,5 hPa 0,0 l/m 0,0 km/h (0 Bft) S-SO 157 7,5 C 12,0 C
03.06.2012 17:16 12,1 C 74 % 1007,5 hPa 0,0 l/m 1,1 km/h (1 Bft) SO 135 7,6 C 12,1 C
03.06.2012 17:21 11,9 C 74 % 1007,5 hPa 0,0 l/m 0,0 km/h (0 Bft) SO 135 7,4 C 11,9 C
03.06.2012 17:26 11,9 C 74 % 1007,4 hPa 0,5 l/m 2,2 km/h (1 Bft) SO 135 7,4 C 11,9 C
03.06.2012 17:31 11,9 C 74 % 1007,2 hPa 0,0 l/m 2,9 km/h (1 Bft) S-SO 157 7,4 C 11,9 C
03.06.2012 17:36 11,9 C 74 % 1007,1 hPa 0,0 l/m 1,8 km/h (1 Bft) S-SO 157 7,4 C 11,9 C
03.06.2012 17:41 11,9 C 74 % 1007,4 hPa 0,0 l/m 0,0 km/h (0 Bft) O-SO 112 7,4 C 11,9 C
03.06.2012 17:46 11,8 C 74 % 1007,2 hPa 0,0 l/m 0,0 km/h (0 Bft) O 90 7,3 C 11,8 C
03.06.2012 17:51 11,7 C 74 % 1007,2 hPa 0,0 l/m 0,0 km/h (0 Bft) O-SO 112 7,2 C 11,7 C
03.06.2012 17:56 11,6 C 75 % 1007,5 hPa 0,0 l/m 0,0 km/h (0 Bft) SO 135 7,3 C 11,6 C
03.06.2012 18:01 11,6 C 74 % 1007,4 hPa 0,0 l/m 0,0 km/h (0 Bft) SO 135 7,1 C 11,6 C
03.06.2012 18:06 11,6 C 75 % 1007,3 hPa 0,0 l/m 0,0 km/h (0 Bft) SO 135 7,3 C 11,6 C
03.06.2012 18:11 11,6 C 75 % 1007,3 hPa 0,0 l/m 1,4 km/h (1 Bft) O-NO 67 7,3 C 11,6 C
03.06.2012 18:16 11,6 C 75 % 1007,4 hPa 0,0 l/m 0,0 km/h (0 Bft) O 90 7,3 C 11,6 C
03.06.2012 18:21 11,6 C 75 % 1007,5 hPa 0,0 l/m 1,1 km/h (1 Bft) SO 135 7,3 C 11,6 C
03.06.2012 18:26 11,6 C 75 % 1007,4 hPa 0,0 l/m 0,0 km/h (0 Bft) SO 135 7,3 C 11,6 C
03.06.2012 18:31 11,6 C 75 % 1007,4 hPa 0,0 l/m 0,0 km/h (0 Bft) SO 135 7,3 C 11,6 C
03.06.2012 18:36 11,6 C 75 % 1007,4 hPa 0,0 l/m 0,0 km/h (0 Bft) SO 135 7,3 C 11,6 C
03.06.2012 18:41 11,6 C 76 % 1007,3 hPa 0,0 l/m 0,0 km/h (0 Bft) SO 135 7,5 C 11,6 C
03.06.2012 18:46 11,8 C 76 % 1007,4 hPa 0,5 l/m 1,4 km/h (1 Bft) S-SW 202 7,7 C 11,8 C
03.06.2012 18:51 11,9 C 76 % 1007,4 hPa 0,0 l/m 0,0 km/h (0 Bft) S-SW 202 7,8 C 11,9 C
03.06.2012 18:56 11,9 C 76 % 1007,5 hPa 0,0 l/m 1,8 km/h (1 Bft) S-SW 202 7,8 C 11,9 C
03.06.2012 19:01 11,9 C 76 % 1007,4 hPa 0,0 l/m 0,0 km/h (0 Bft) S-SO 157 7,8 C 11,9 C
03.06.2012 19:06 11,9 C 76 % 1007,4 hPa 0,0 l/m 0,0 km/h (0 Bft) S 180 7,8 C 11,9 C
03.06.2012 19:11 11,9 C 76 % 1007,5 hPa 0,0 l/m 0,0 km/h (0 Bft) SO 135 7,8 C 11,9 C
03.06.2012 19:16 11,8 C 75 % 1007,7 hPa 0,0 l/m 0,0 km/h (0 Bft) SO 135 7,5 C 11,8 C
03.06.2012 19:21 11,6 C 74 % 1007,5 hPa 0,0 l/m 0,0 km/h (0 Bft) S-SO 157 7,1 C 11,6 C
03.06.2012 19:26 11,5 C 74 % 1007,6 hPa 0,5 l/m 0,0 km/h (0 Bft) S-SW 202 7,0 C 11,5 C
03.06.2012 19:31 11,4 C 75 % 1007,5 hPa 0,0 l/m 0,0 km/h (0 Bft) NW 315 7,1 C 11,4 C
03.06.2012 19:36 11,3 C 74 % 1007,4 hPa 0,0 l/m 0,0 km/h (0 Bft) N 360 6,8 C 11,3 C
03.06.2012 19:41 11,2 C 75 % 1007,7 hPa 0,0 l/m 0,0 km/h (0 Bft) N-NO 22 6,9 C 11,2 C
03.06.2012 19:46 11,1 C 75 % 1007,7 hPa 0,0 l/m 0,0 km/h (0 Bft) N 360 6,8 C 11,1 C
03.06.2012 19:51 11,1 C 75 % 1007,6 hPa 0,0 l/m 0,0 km/h (0 Bft) N-NW 337 6,8 C 11,1 C
03.06.2012 19:56 11,1 C 76 % 1007,6 hPa 0,0 l/m 0,0 km/h (0 Bft) N 360 7,0 C 11,1 C
03.06.2012 20:01 11,0 C 76 % 1007,7 hPa 0,0 l/m 0,0 km/h (0 Bft) N-NO 22 6,9 C 11,0 C
03.06.2012 20:06 11,0 C 77 % 1007,7 hPa 0,0 l/m 0,0 km/h (0 Bft) N-NO 22 7,1 C 11,0 C
03.06.2012 20:11 10,9 C 77 % 1007,7 hPa 0,0 l/m 0,0 km/h (0 Bft) N 360 7,0 C 10,9 C
03.06.2012 20:16 10,9 C 77 % 1007,8 hPa 0,0 l/m 0,0 km/h (0 Bft) N-NO 22 7,0 C 10,9 C
03.06.2012 20:21 10,9 C 77 % 1007,8 hPa 0,0 l/m 0,0 km/h (0 Bft) N-NW 337 7,0 C 10,9 C
03.06.2012 20:26 10,9 C 78 % 1007,8 hPa 0,0 l/m 0,0 km/h (0 Bft) W 270 7,2 C 10,9 C
03.06.2012 20:31 11,1 C 78 % 1007,8 hPa 0,0 l/m 2,2 km/h (1 Bft) NW 315 7,4 C 11,1 C
03.06.2012 20:36 11,0 C 77 % 1007,8 hPa 0,0 l/m 0,0 km/h (0 Bft) W 270 7,1 C 11,0 C
03.06.2012 20:41 10,9 C 77 % 1007,7 hPa 0,0 l/m 0,0 km/h (0 Bft) W 270 7,0 C 10,9 C
03.06.2012 20:46 10,9 C 77 % 1008,0 hPa 0,0 l/m 2,2 km/h (1 Bft) W-NW 292 7,0 C 10,9 C
03.06.2012 20:51 10,9 C 78 % 1008,2 hPa 0,0 l/m 4,0 km/h (1 Bft) W-NW 292 7,2 C 10,9 C
03.06.2012 20:56 10,9 C 78 % 1008,1 hPa 0,0 l/m 2,5 km/h (1 Bft) W-NW 292 7,2 C 10,9 C
03.06.2012 21:01 10,8 C 78 % 1008,0 hPa 0,0 l/m 1,1 km/h (1 Bft) W-NW 292 7,1 C 10,8 C
03.06.2012 21:06 10,8 C 78 % 1008,1 hPa 0,0 l/m 7,9 km/h (2 Bft) NW 315 7,1 C 10,8 C
03.06.2012 21:11 10,7 C 79 % 1008,1 hPa 0,0 l/m 4,7 km/h (1 Bft) W-NW 292 7,2 C 10,7 C
03.06.2012 21:16 10,6 C 79 % 1008,2 hPa 0,0 l/m 5,0 km/h (1 Bft) W-NW 292 7,1 C 10,6 C
03.06.2012 21:21 10,6 C 79 % 1008,2 hPa 0,0 l/m 0,0 km/h (0 Bft) NW 315 7,1 C 10,6 C
03.06.2012 21:26 10,5 C 79 % 1008,5 hPa 0,0 l/m 3,2 km/h (1 Bft) NW 315 7,0 C 10,5 C
03.06.2012 21:31 10,5 C 80 % 1008,4 hPa 0,0 l/m 5,8 km/h (2 Bft) W-NW 292 7,2 C 10,5 C
03.06.2012 21:36 10,4 C 80 % 1008,5 hPa 0,0 l/m 5,0 km/h (1 Bft) W-NW 292 7,1 C 10,4 C
03.06.2012 21:41 10,4 C 80 % 1008,5 hPa 0,0 l/m 2,9 km/h (1 Bft) NW 315 7,1 C 10,4 C
03.06.2012 21:46 10,4 C 79 % 1008,6 hPa 0,0 l/m 0,0 km/h (0 Bft) W-NW 292 6,9 C 10,4 C
03.06.2012 21:51 10,3 C 80 % 1008,7 hPa 0,0 l/m 2,9 km/h (1 Bft) W-NW 292 7,0 C 10,3 C
03.06.2012 21:56 10,3 C 80 % 1008,8 hPa 0,0 l/m 5,8 km/h (2 Bft) NW 315 7,0 C 10,3 C
03.06.2012 22:01 10,3 C 80 % 1008,9 hPa 0,0 l/m 2,5 km/h (1 Bft) W-NW 292 7,0 C 10,3 C
03.06.2012 22:06 10,3 C 80 % 1008,7 hPa 0,0 l/m 5,8 km/h (2 Bft) W-NW 292 7,0 C 10,3 C
03.06.2012 22:11 10,3 C 81 % 1008,7 hPa 0,0 l/m 0,0 km/h (0 Bft) W 270 7,2 C 10,3 C
03.06.2012 22:16 10,3 C 81 % 1008,7 hPa 0,0 l/m 4,0 km/h (1 Bft) NW 315 7,2 C 10,3 C
03.06.2012 22:21 10,3 C 81 % 1008,8 hPa 0,0 l/m 4,7 km/h (1 Bft) NW 315 7,2 C 10,3 C
03.06.2012 22:26 10,3 C 81 % 1008,9 hPa 0,0 l/m 3,2 km/h (1 Bft) W 270 7,2 C 10,3 C
03.06.2012 22:31 10,3 C 82 % 1009,0 hPa 0,0 l/m 6,1 km/h (2 Bft) W-NW 292 7,4 C 10,3 C
03.06.2012 22:36 10,2 C 82 % 1009,1 hPa 0,0 l/m 7,6 km/h (2 Bft) W 270 7,3 C 10,2 C
03.06.2012 22:41 10,1 C 82 % 1009,1 hPa 0,0 l/m 6,1 km/h (2 Bft) W-NW 292 7,2 C 10,1 C
03.06.2012 22:46 10,1 C 82 % 1009,1 hPa 0,0 l/m 4,0 km/h (1 Bft) W-NW 292 7,2 C 10,1 C
03.06.2012 22:51 10,1 C 82 % 1009,1 hPa 0,0 l/m 4,0 km/h (1 Bft) W-NW 292 7,2 C 10,1 C
03.06.2012 22:56 9,9 C 82 % 1009,1 hPa 0,0 l/m 10,4 km/h (2 Bft) W-NW 292 7,0 C 8,4 C
03.06.2012 23:01 9,9 C 82 % 1009,2 hPa 0,0 l/m 3,6 km/h (1 Bft) W-NW 292 7,0 C 9,9 C
03.06.2012 23:06 9,9 C 82 % 1009,2 hPa 0,0 l/m 0,0 km/h (0 Bft) W-NW 292 7,0 C 9,9 C
03.06.2012 23:11 9,9 C 82 % 1009,1 hPa 0,0 l/m 4,0 km/h (1 Bft) W-NW 292 7,0 C 9,9 C
03.06.2012 23:16 9,8 C 82 % 1009,2 hPa 0,0 l/m 5,4 km/h (1 Bft) W-NW 292 6,9 C 9,4 C
03.06.2012 23:21 9,8 C 82 % 1009,2 hPa 0,0 l/m 3,6 km/h (1 Bft) W 270 6,9 C 9,8 C
03.06.2012 23:26 9,8 C 81 % 1009,2 hPa 0,0 l/m 2,9 km/h (1 Bft) N-NW 337 6,7 C 9,8 C
03.06.2012 23:31 9,8 C 82 % 1009,2 hPa 0,0 l/m 2,2 km/h (1 Bft) W-NW 292 6,9 C 9,8 C
03.06.2012 23:36 9,7 C 81 % 1009,1 hPa 0,0 l/m 6,1 km/h (2 Bft) W-NW 292 6,6 C 9,1 C
03.06.2012 23:41 9,6 C 81 % 1009,2 hPa 0,0 l/m 5,0 km/h (1 Bft) W-NW 292 6,5 C 9,3 C
03.06.2012 23:46 9,6 C 82 % 1009,3 hPa 0,0 l/m 2,9 km/h (1 Bft) W-NW 292 6,7 C 9,6 C
03.06.2012 23:51 9,8 C 82 % 1009,2 hPa 0,0 l/m 0,0 km/h (0 Bft) W-NW 292 6,9 C 9,8 C
03.06.2012 23:56 9,8 C 82 % 1009,2 hPa 0,0 l/m 0,0 km/h (0 Bft) W 270 6,9 C 9,8 C
_ Min-Zeit 05:11 13:01 17:36 - 00:06 - - 04:56 05:46
Minimum _ 8,3 C 48 % 1007,1 hPa - 0,0 km/h (0 Bft) - - 3,4 C 8,2 C
_ Max-Zeit 12:41 22:31 00:01 15:06 10:31 - - 16:36 12:41
Maximum _ 15,4 C 82 % 1013,6 hPa 0,5 l/m 11,2 km/h
W-SW (2 Bft)
- - 7,9 C 15,4 C
Durchschnitt _ 11,4 C 68 % 1010,3 hPa #4,7 l/m 3,2 km/h (1 Bft) W-NW - 5,5 C 11,4 C
(c) by David Heller